Time;durP1;ratioP1;P1;durP2;ratioP2;P2;SDS_P1;SDS_P2;PMS_P1;PMS_P2;Temp;Humidity;BMP_temperature;BMP_pressure;BME280_temperature;BME280_humidity;BME280_pressure;Samples;Min_cycle;Max_cycle;Signal;HPM_P1;HPM_P2
2022/04/09 00:07:41;;;;;;;2.05;0.50;;;;;;;;;;20310130;29;20048;-80
2022/04/09 00:17:43;;;;;;;1.17;0.50;;;;;;;;;;20283308;29;20056;-83
2022/04/09 00:27:45;;;;;;;2.35;0.50;;;;;;;;;;20286445;29;20040;-81
2022/04/09 00:37:47;;;;;;;1.95;0.60;;;;;;;;;;20291272;29;20046;-82
2022/04/09 00:47:49;;;;;;;1.27;0.50;;;;;;;;;;20278680;29;20036;-82
2022/04/09 00:57:51;;;;;;;0.70;0.30;;;;;;;;;;20306661;29;20052;-81
2022/04/09 01:07:53;;;;;;;1.42;0.68;;;;;;;;;;20281896;29;20541;-81
2022/04/09 01:17:55;;;;;;;1.55;0.70;;;;;;;;;;20296424;29;20052;-81
2022/04/09 01:27:57;;;;;;;0.73;0.40;;;;;;;;;;20277914;29;20596;-80
2022/04/09 01:37:59;;;;;;;0.60;0.40;;;;;;;;;;20310868;29;20116;-80
2022/04/09 01:48:02;;;;;;;0.40;0.30;;;;;;;;;;20279071;29;20159;-81
2022/04/09 01:58:05;;;;;;;0.70;0.50;;;;;;;;;;20289412;29;20048;-81
2022/04/09 02:08:10;;;;;;;0.60;0.30;;;;;;;;;;20270608;29;20045;-82
2022/04/09 02:18:12;;;;;;;0.38;0.25;;;;;;;;;;20304736;29;20052;-81
2022/04/09 02:28:14;;;;;;;0.70;0.30;;;;;;;;;;20284125;29;20052;-81
2022/04/09 02:38:16;;;;;;;0.82;0.30;;;;;;;;;;20295412;29;21739;-81
2022/04/09 02:48:18;;;;;;;0.68;0.40;;;;;;;;;;20287355;29;20509;-81
2022/04/09 02:58:20;;;;;;;1.00;0.40;;;;;;;;;;20233391;29;1124327;-81
2022/04/09 03:08:23;;;;;;;1.08;0.40;;;;;;;;;;20294476;29;20040;-81
2022/04/09 03:18:25;;;;;;;1.08;0.40;;;;;;;;;;20297681;29;20143;-81
2022/04/09 03:28:27;;;;;;;1.75;0.40;;;;;;;;;;20324890;29;20083;-81
2022/04/09 03:38:29;;;;;;;0.47;0.30;;;;;;;;;;20302627;29;20103;-80
2022/04/09 03:48:33;;;;;;;0.68;0.30;;;;;;;;;;20242800;29;20083;-80
2022/04/09 03:58:38;;;;;;;0.52;0.30;;;;;;;;;;20272568;29;20135;-81
2022/04/09 04:08:43;;;;;;;0.65;0.30;;;;;;;;;;20255695;29;20080;-80
2022/04/09 04:18:50;;;;;;;0.68;0.40;;;;;;;;;;20270942;29;20053;-82
2022/04/09 04:28:52;;;;;;;0.98;0.40;;;;;;;;;;20287009;29;20092;-80
2022/04/09 04:38:56;;;;;;;2.40;0.45;;;;;;;;;;20254600;29;20049;-81
2022/04/09 04:48:59;;;;;;;2.47;0.60;;;;;;;;;;20285442;29;20048;-81
2022/04/09 04:59:01;;;;;;;3.70;1.02;;;;;;;;;;20268360;29;20076;-81
2022/04/09 05:09:03;;;;;;;2.22;0.50;;;;;;;;;;20267516;29;20537;-80
2022/04/09 05:19:16;;;;;;;2.83;0.55;;;;;;;;;;20249426;29;20513;-79
2022/04/09 05:29:23;;;;;;;1.70;0.70;;;;;;;;;;20265412;29;20041;-79
2022/04/09 05:39:26;;;;;;;3.63;0.70;;;;;;;;;;20250208;29;20059;-79
2022/04/09 05:49:31;;;;;;;1.30;0.40;;;;;;;;;;20249569;29;20048;-80
2022/04/09 05:59:33;;;;;;;1.83;0.50;;;;;;;;;;20248619;29;20056;-79
2022/04/09 06:09:35;;;;;;;1.98;0.40;;;;;;;;;;20263395;29;20389;-80
2022/04/09 06:19:45;;;;;;;1.00;0.40;;;;;;;;;;20278182;29;20052;-80
2022/04/09 06:29:47;;;;;;;0.57;0.30;;;;;;;;;;20264146;29;20503;-80
2022/04/09 06:39:49;;;;;;;1.58;0.40;;;;;;;;;;20278314;29;20052;-80
2022/04/09 06:49:52;;;;;;;0.88;0.35;;;;;;;;;;20278040;29;20052;-80
2022/04/09 06:59:57;;;;;;;0.65;0.40;;;;;;;;;;20261972;29;20559;-80
2022/04/09 07:10:05;;;;;;;1.17;0.50;;;;;;;;;;20276325;29;20048;-80
2022/04/09 07:20:07;;;;;;;1.27;0.45;;;;;;;;;;20277269;29;20494;-80
2022/04/09 07:30:11;;;;;;;0.93;0.40;;;;;;;;;;20276895;29;20057;-81
2022/04/09 07:40:14;;;;;;;1.48;0.60;;;;;;;;;;20275678;29;20056;-81
2022/04/09 07:50:15;;;;;;;1.98;0.47;;;;;;;;;;20289099;29;20048;-83
2022/04/09 08:00:18;;;;;;;1.40;0.60;;;;;;;;;;20257443;29;20060;-78
2022/04/09 08:10:20;;;;;;;1.33;0.40;;;;;;;;;;20256753;29;20048;-78
2022/04/09 08:20:22;;;;;;;1.35;0.52;;;;;;;;;;20273738;29;20075;-79
2022/04/09 08:30:24;;;;;;;1.40;0.40;;;;;;;;;;20270773;29;20139;-77
2022/04/09 08:40:26;;;;;;;0.80;0.60;;;;;;;;;;20271481;29;20044;-79
2022/04/09 08:50:27;;;;;;;1.65;0.52;;;;;;;;;;20270738;29;20052;-80
2022/04/09 09:00:30;;;;;;;0.80;0.40;;;;;;;;;;20283726;29;20056;-80
2022/04/09 09:10:31;;;;;;;1.50;0.40;;;;;;;;;;20252550;29;20052;-80
2022/04/09 09:20:39;;;;;;;1.33;0.47;;;;;;;;;;20268306;29;20083;-79
2022/04/09 09:30:50;;;;;;;1.27;0.50;;;;;;;;;;20250805;29;20049;-80
2022/04/09 09:40:52;;;;;;;1.33;0.47;;;;;;;;;;20281386;29;20057;-82
2022/04/09 09:50:57;;;;;;;2.00;0.50;;;;;;;;;;20265006;29;20092;-79
2022/04/09 10:00:59;;;;;;;0.57;0.43;;;;;;;;;;20265626;29;20067;-79
2022/04/09 10:11:02;;;;;;;0.75;0.40;;;;;;;;;;20264891;29;20056;-79
2022/04/09 10:21:05;;;;;;;1.05;0.40;;;;;;;;;;20278873;29;20057;-79
2022/04/09 10:31:30;;;;;;;0.98;0.35;;;;;;;;;;20264138;29;20154;-79
2022/04/09 10:41:36;;;;;;;0.90;0.38;;;;;;;;;;20258735;29;20464;-79
2022/04/09 10:51:56;;;;;;;2.83;0.88;;;;;;;;;;20263664;29;20395;-79
2022/04/09 11:01:58;;;;;;;1.35;0.57;;;;;;;;;;20263026;29;20088;-79
2022/04/09 11:12:04;;;;;;;;;;;;;;;;;;20263302;29;20056;-79
2022/04/09 11:22:07;;;;;;;1.23;0.40;;;;;;;;;;20271334;29;19923;-79
2022/04/09 11:32:19;;;;;;;1.02;0.70;;;;;;;;;;20290976;29;20041;-79
2022/04/09 11:42:21;;;;;;;1.70;0.60;;;;;;;;;;20276007;29;20055;-79
2022/04/09 11:52:25;;;;;;;0.82;0.40;;;;;;;;;;20289287;29;20416;-79
2022/04/09 12:02:27;;;;;;;0.55;0.55;;;;;;;;;;20326810;29;20396;-80
2022/04/09 12:12:29;;;;;;;1.48;0.47;;;;;;;;;;20328512;29;20044;-80
2022/04/09 12:22:30;;;;;;;1.13;0.45;;;;;;;;;;20257693;29;20078;-80
2022/04/09 12:32:33;;;;;;;1.42;0.90;;;;;;;;;;20269435;29;20055;-81
2022/04/09 12:42:35;;;;;;;0.82;0.55;;;;;;;;;;20289086;29;20044;-80
2022/04/09 12:52:37;;;;;;;1.45;0.50;;;;;;;;;;20284247;29;20139;-80
2022/04/09 13:02:40;;;;;;;1.50;0.35;;;;;;;;;;20284390;29;20064;-80
2022/04/09 13:12:42;;;;;;;0.98;0.38;;;;;;;;;;20252081;29;20056;-79
2022/04/09 13:22:44;;;;;;;1.65;0.40;;;;;;;;;;20268269;29;20095;-80
2022/04/09 13:32:46;;;;;;;0.65;0.30;;;;;;;;;;20267618;29;20059;-79
2022/04/09 13:42:48;;;;;;;2.63;0.50;;;;;;;;;;20275752;29;20496;-79
2022/04/09 13:52:50;;;;;;;0.95;0.47;;;;;;;;;;20280440;29;20053;-80
2022/04/09 14:02:54;;;;;;;0.63;0.20;;;;;;;;;;20266030;29;20056;-79
2022/04/09 14:12:57;;;;;;;1.08;0.40;;;;;;;;;;20280311;29;20048;-80
2022/04/09 14:23:01;;;;;;;0.50;0.30;;;;;;;;;;20279294;29;20499;-79
2022/04/09 14:33:03;;;;;;;0.80;0.30;;;;;;;;;;20264236;29;20072;-80
2022/04/09 14:43:05;;;;;;;2.10;0.40;;;;;;;;;;20264141;29;20048;-79
2022/04/09 14:53:07;;;;;;;0.75;0.25;;;;;;;;;;20249661;29;20124;-79
2022/04/09 15:03:11;;;;;;;0.57;0.38;;;;;;;;;;20278657;29;20392;-80
2022/04/09 15:13:12;;;;;;;1.27;0.30;;;;;;;;;;20276402;29;20056;-79
2022/04/09 15:23:14;;;;;;;1.25;0.50;;;;;;;;;;20277402;29;20135;-80
2022/04/09 15:33:16;;;;;;;0.40;0.30;;;;;;;;;;20276406;29;20047;-79
2022/04/09 15:43:18;;;;;;;1.85;0.50;;;;;;;;;;20290210;29;20143;-80
2022/04/09 15:53:20;;;;;;;1.77;0.30;;;;;;;;;;20275143;29;20049;-79
2022/04/09 16:03:22;;;;;;;0.52;0.20;;;;;;;;;;20302410;29;20265;-79
2022/04/09 16:13:24;;;;;;;1.13;0.40;;;;;;;;;;20323174;29;20459;-81
2022/04/09 16:23:26;;;;;;;1.13;0.43;;;;;;;;;;20283115;29;20048;-80
2022/04/09 16:33:28;;;;;;;1.27;0.38;;;;;;;;;;20275378;29;20048;-81
2022/04/09 16:43:30;;;;;;;0.65;0.30;;;;;;;;;;20303225;29;20051;-81
2022/04/09 16:53:31;;;;;;;1.30;0.50;;;;;;;;;;20289339;29;20078;-80
2022/04/09 17:03:33;;;;;;;0.80;0.60;;;;;;;;;;20299010;29;20059;-80
2022/04/09 17:13:36;;;;;;;1.00;0.40;;;;;;;;;;20286170;29;20047;-80
2022/04/09 17:23:38;;;;;;;0.73;0.32;;;;;;;;;;20304678;29;20474;-81
2022/04/09 17:33:39;;;;;;;1.40;0.30;;;;;;;;;;20304207;29;20094;-81
2022/04/09 17:43:41;;;;;;;0.98;0.47;;;;;;;;;;20271728;29;20923;-80
2022/04/09 17:53:43;;;;;;;0.93;0.50;;;;;;;;;;20284622;29;20052;-80
2022/04/09 18:03:45;;;;;;;0.52;0.30;;;;;;;;;;20293190;29;20052;-81
2022/04/09 18:13:46;;;;;;;1.00;0.30;;;;;;;;;;20282391;29;20111;-80
2022/04/09 18:23:48;;;;;;;0.60;0.20;;;;;;;;;;20289991;29;20538;-80
2022/04/09 18:33:50;;;;;;;0.98;0.30;;;;;;;;;;20315086;29;20048;-80
2022/04/09 18:43:52;;;;;;;1.42;0.73;;;;;;;;;;20294699;29;20127;-80
2022/04/09 18:53:54;;;;;;;0.88;0.40;;;;;;;;;;20304733;29;20052;-80
2022/04/09 19:03:56;;;;;;;0.50;0.30;;;;;;;;;;20275752;29;20062;-79
2022/04/09 19:13:58;;;;;;;0.57;0.32;;;;;;;;;;20286921;29;20079;-80
2022/04/09 19:24:00;;;;;;;0.93;0.45;;;;;;;;;;20322827;29;20056;-80
2022/04/09 19:34:08;;;;;;;0.85;0.30;;;;;;;;;;20322808;29;20059;-80
2022/04/09 19:44:10;;;;;;;1.20;0.30;;;;;;;;;;20332834;29;20080;-80
2022/04/09 19:54:12;;;;;;;0.80;0.50;;;;;;;;;;20308691;29;20049;-80
2022/04/09 20:04:17;;;;;;;0.80;0.20;;;;;;;;;;20271030;29;20056;-80
2022/04/09 20:14:19;;;;;;;1.33;0.40;;;;;;;;;;20351041;29;20060;-80
2022/04/09 20:24:24;;;;;;;1.60;0.30;;;;;;;;;;20283578;29;20037;-80
2022/04/09 20:34:26;;;;;;;1.40;0.40;;;;;;;;;;20305158;29;20052;-80
2022/04/09 20:44:28;;;;;;;0.90;0.55;;;;;;;;;;20244345;29;20108;-80
2022/04/09 20:54:31;;;;;;;1.10;0.60;;;;;;;;;;20346466;29;20151;-80
2022/04/09 21:04:33;;;;;;;0.70;0.30;;;;;;;;;;20409631;29;20043;-80
2022/04/09 21:14:35;;;;;;;2.22;0.50;;;;;;;;;;20407833;29;20055;-80
2022/04/09 21:24:36;;;;;;;0.93;0.50;;;;;;;;;;20372091;29;20070;-80
2022/04/09 21:34:38;;;;;;;0.57;0.50;;;;;;;;;;20292558;29;20131;-79
2022/04/09 21:44:41;;;;;;;1.30;0.30;;;;;;;;;;20276272;29;20057;-80
2022/04/09 21:54:43;;;;;;;1.20;0.43;;;;;;;;;;20316948;29;20052;-80
2022/04/09 22:04:44;;;;;;;1.40;0.35;;;;;;;;;;20342204;29;20499;-79
2022/04/09 22:14:50;;;;;;;0.33;0.33;;;;;;;;;;20342246;29;20509;-81
2022/04/09 22:24:52;;;;;;;1.27;0.50;;;;;;;;;;20340524;29;20311;-81
2022/04/09 22:34:53;;;;;;;1.17;0.50;;;;;;;;;;20340604;29;20411;-81
2022/04/09 22:44:55;;;;;;;0.47;0.32;;;;;;;;;;20285471;29;20105;-81
2022/04/09 22:54:57;;;;;;;0.30;0.30;;;;;;;;;;20233001;29;20519;-81
2022/04/09 23:04:58;;;;;;;0.98;0.40;;;;;;;;;;20319869;29;20056;-80
2022/04/09 23:15:00;;;;;;;1.00;0.40;;;;;;;;;;20311253;29;20055;-80
2022/04/09 23:25:02;;;;;;;1.08;0.32;;;;;;;;;;20337554;29;20058;-80
2022/04/09 23:35:04;;;;;;;0.70;0.50;;;;;;;;;;20344847;29;20055;-80
2022/04/09 23:45:06;;;;;;;0.52;0.40;;;;;;;;;;20431565;29;20060;-79
2022/04/09 23:55:08;;;;;;;1.60;0.40;;;;;;;;;;20413220;29;20044;-80
